Overview Statistics Trail Chart Weather Telemetry Raw packets
 

This is the latest recevied weather packets stored in our database for station/object N7WSS. If no packets are shown the sender has not sent any weather packets the latest 10 day(s).

<< 9 10 11 12 13 14 15 >>
Time Temp. Humidity Pressure Rain* Wind** Luminosity Snow
1788567812 34.44° C 33% 1011.8 hPa 0 mm - - -
1788567507 34.44° C 32% 1012 hPa 0 mm - - -
1788567206 35° C 32% 1011.8 hPa 0 mm - - -
1788566902 35° C 32% 1011.8 hPa 0 mm - - -
1788566597 35° C 30% 1011.5 hPa 0 mm - - -
1788566293 35° C 30% 1011.5 hPa 0 mm - - -
1788565988 35° C 30% 1011.7 hPa 0 mm - - -
1788565683 35° C 31% 1011.8 hPa 0 mm - - -
1788565378 35° C 31% 1011.8 hPa 0 mm - - -
1788565073 35° C 31% 1011.9 hPa 0 mm - - -
1788564770 35° C 32% 1011.5 hPa 0 mm - - -
1788564466 35° C 33% 1011.8 hPa 0 mm - - -
1788564162 35° C 34% 1011.7 hPa 0 mm - - -
1788563883 35° C 34% 1011.8 hPa 0 mm - - -
1788563553 33.89° C 36% 1012 hPa 0 mm - - -
1788563252 34.44° C 36% 1011.8 hPa 0 mm - - -
1788562947 35° C 34% 1011.9 hPa 0 mm - - -
1788562647 33.89° C 37% 1012 hPa 0 mm - - -
1788562346 33.89° C 36% 1012.1 hPa 0 mm - - -
1788562045 33.33° C 36% 1011.8 hPa 0 mm - - -
1788561740 34.44° C 36% 1012.3 hPa 0 mm - - -
1788561439 34.44° C 35% 1011.9 hPa 0 mm - - -
1788561135 32.78° C 38% 1011.8 hPa 0 mm - - -
1788560830 33.33° C 37% 1012 hPa 0 mm - - -
1788560526 35° C 35% 1011.9 hPa 0 mm - - -

* Rain latest hour (hover to see other rain measurements)
** Current wind speed in m/s (hover to see current wind gust speed)